createdAt,value
2022-10-22T00:00:10.263Z,9.57
2022-10-22T00:02:37.529Z,9.27
2022-10-22T00:05:05.284Z,9.02
2022-10-22T00:07:33.802Z,10.27
2022-10-22T00:10:01.686Z,8.68
2022-10-22T00:12:37.807Z,9.27
2022-10-22T00:15:10.343Z,8.68
2022-10-22T00:17:41.240Z,10.27
2022-10-22T00:20:12.354Z,9.15
2022-10-22T00:22:39.870Z,9.02
2022-10-22T00:25:13.179Z,9.60
2022-10-22T00:27:40.633Z,10.27
2022-10-22T00:30:09.611Z,10.52
2022-10-22T00:32:38.528Z,9.35
2022-10-22T00:35:07.706Z,9.63
2022-10-22T00:37:35.118Z,10.45
2022-10-22T00:40:02.337Z,10.75
2022-10-22T00:42:43.339Z,11.05
2022-10-22T00:45:22.422Z,11.35
2022-10-22T00:47:58.939Z,9.95
2022-10-22T00:50:44.950Z,10.52
2022-10-22T00:53:16.735Z,10.15
2022-10-22T00:55:47.735Z,9.98
2022-10-22T00:58:15.886Z,10.63
2022-10-22T01:00:43.375Z,10.82
2022-10-22T01:03:10.980Z,10.95
2022-10-22T01:05:51.592Z,13.00
2022-10-22T01:08:48.461Z,10.65
2022-10-22T01:11:35.924Z,11.75
2022-10-22T01:14:40.493Z,11.68
2022-10-22T01:17:25.109Z,12.93
2022-10-22T01:20:19.852Z,12.35
2022-10-22T01:23:21.804Z,12.32
2022-10-22T01:25:58.736Z,13.00
2022-10-22T01:29:06.749Z,14.02
2022-10-22T01:31:41.656Z,13.68
2022-10-22T01:34:09.878Z,13.65
2022-10-22T01:36:38.693Z,13.98
2022-10-22T01:39:07.394Z,14.70
2022-10-22T01:41:35.263Z,15.60
2022-10-22T01:44:02.497Z,13.80
2022-10-22T01:46:30.144Z,15.43
2022-10-22T01:49:15.041Z,14.45
2022-10-22T01:52:16.100Z,16.35
2022-10-22T01:54:53.495Z,14.27
2022-10-22T01:57:44.172Z,14.07
2022-10-22T02:00:14.084Z,13.63
2022-10-22T02:02:44.114Z,13.73
2022-10-22T02:05:34.044Z,13.80
2022-10-22T02:08:11.094Z,13.57
2022-10-22T02:10:41.230Z,14.75
2022-10-22T02:13:17.449Z,14.32
2022-10-22T02:15:46.782Z,13.95
2022-10-22T02:18:15.302Z,14.50
2022-10-22T02:20:42.878Z,13.93
2022-10-22T02:23:11.310Z,12.85
2022-10-22T02:25:47.066Z,13.15
2022-10-22T02:28:32.254Z,12.85
2022-10-22T02:31:18.595Z,13.73
2022-10-22T02:33:52.501Z,14.10
2022-10-22T02:36:20.593Z,14.32
2022-10-22T02:38:50.386Z,13.77
2022-10-22T02:41:18.502Z,13.60
2022-10-22T02:43:51.445Z,13.40
2022-10-22T02:46:18.646Z,14.55
2022-10-22T02:48:45.638Z,13.25
2022-10-22T02:51:12.737Z,13.45
2022-10-22T02:53:39.761Z,14.63
2022-10-22T02:56:07.405Z,13.27
2022-10-22T02:58:34.449Z,13.10
2022-10-22T03:01:01.651Z,13.65
2022-10-22T03:03:28.793Z,13.57
2022-10-22T03:05:55.810Z,13.02
2022-10-22T03:08:22.958Z,13.10
2022-10-22T03:10:50.113Z,12.48
2022-10-22T03:13:17.067Z,13.02
2022-10-22T03:15:44.196Z,11.98
2022-10-22T03:18:11.164Z,12.52
2022-10-22T03:20:38.159Z,13.45
2022-10-22T03:23:05.188Z,14.18
2022-10-22T03:25:34.613Z,12.88
2022-10-22T03:28:09.338Z,13.85
2022-10-22T03:30:36.730Z,13.18
2022-10-22T03:33:03.778Z,13.43
2022-10-22T03:35:31.784Z,12.55
2022-10-22T03:38:01.410Z,13.68
2022-10-22T03:40:28.443Z,12.80
2022-10-22T03:42:55.757Z,12.68
2022-10-22T03:45:22.855Z,12.93
2022-10-22T03:47:49.960Z,12.63
2022-10-22T03:50:17.380Z,12.63
2022-10-22T03:52:44.332Z,12.23
2022-10-22T03:55:11.345Z,11.73
2022-10-22T03:57:38.611Z,11.50
2022-10-22T04:00:06.970Z,11.63
2022-10-22T04:02:33.927Z,10.70
2022-10-22T04:05:01.024Z,12.60
2022-10-22T04:07:28.112Z,12.45
2022-10-22T04:09:55.099Z,12.18
2022-10-22T04:12:22.075Z,12.30
2022-10-22T04:14:49.202Z,13.35
2022-10-22T04:17:16.323Z,12.45
2022-10-22T04:19:43.554Z,11.30
2022-10-22T04:22:10.615Z,11.52
2022-10-22T04:24:38.217Z,11.88
2022-10-22T04:27:05.352Z,12.45
2022-10-22T04:29:32.504Z,12.18
2022-10-22T04:31:59.585Z,11.65
2022-10-22T04:34:29.881Z,14.05
2022-10-22T04:36:56.903Z,13.20
2022-10-22T04:39:24.015Z,12.77
2022-10-22T04:41:51.036Z,12.43
2022-10-22T04:44:18.570Z,12.40
2022-10-22T04:46:45.958Z,12.90
2022-10-22T04:49:13.025Z,12.45
2022-10-22T04:51:40.426Z,13.07
2022-10-22T04:54:07.421Z,12.75
2022-10-22T04:56:34.486Z,12.60
2022-10-22T04:59:07.082Z,12.75
2022-10-22T05:01:42.659Z,12.73
2022-10-22T05:04:15.574Z,12.23
2022-10-22T05:06:43.192Z,12.63
2022-10-22T05:09:15.930Z,13.90
2022-10-22T05:11:48.871Z,13.03
2022-10-22T05:14:23.759Z,13.65
2022-10-22T05:16:51.883Z,12.73
2022-10-22T05:19:24.154Z,12.88
2022-10-22T05:21:54.472Z,13.30
2022-10-22T05:24:22.225Z,13.15
2022-10-22T05:26:50.968Z,13.77
2022-10-22T05:29:18.564Z,13.25
2022-10-22T05:31:45.890Z,13.38
2022-10-22T05:34:13.447Z,12.63
2022-10-22T05:36:40.986Z,13.48
2022-10-22T05:39:08.159Z,13.88
2022-10-22T05:41:38.374Z,13.38
2022-10-22T05:44:06.071Z,14.88
2022-10-22T05:46:35.777Z,13.63
2022-10-22T05:49:04.783Z,13.27
2022-10-22T05:51:34.841Z,14.35
2022-10-22T05:54:04.260Z,13.88
2022-10-22T05:56:32.270Z,13.43
2022-10-22T05:59:00.233Z,13.57
2022-10-22T06:01:30.200Z,13.45
2022-10-22T06:03:59.557Z,14.88
2022-10-22T06:06:34.753Z,12.77
2022-10-22T06:09:06.580Z,13.30
2022-10-22T06:11:35.246Z,14.30
2022-10-22T06:14:02.930Z,14.18
2022-10-22T06:16:30.984Z,14.13
2022-10-22T06:19:01.932Z,14.43
2022-10-22T06:21:29.395Z,15.38
2022-10-22T06:23:57.808Z,15.38
2022-10-22T06:26:24.870Z,15.20
2022-10-22T06:28:51.860Z,15.00
2022-10-22T06:31:18.996Z,15.35
2022-10-22T06:33:45.942Z,16.80
2022-10-22T06:36:24.371Z,15.20
2022-10-22T06:38:55.715Z,15.05
2022-10-22T06:41:25.756Z,15.48
2022-10-22T06:43:57.916Z,16.20
2022-10-22T06:46:25.695Z,16.95
2022-10-22T06:48:58.043Z,19.98
2022-10-22T06:51:26.734Z,20.38
2022-10-22T06:53:55.685Z,23.35
2022-10-22T06:56:24.764Z,22.25
2022-10-22T06:58:53.767Z,18.98
2022-10-22T07:01:23.410Z,18.40
2022-10-22T07:03:51.936Z,16.63
2022-10-22T07:06:19.722Z,18.27
2022-10-22T07:08:46.824Z,18.70
2022-10-22T07:11:17.799Z,17.48
2022-10-22T07:13:45.619Z,18.10
2022-10-22T07:16:13.489Z,19.05
2022-10-22T07:18:41.556Z,19.20
2022-10-22T07:21:10.249Z,17.75
2022-10-22T07:23:37.469Z,16.40
2022-10-22T07:26:07.340Z,15.63
2022-10-22T07:28:39.784Z,14.32
2022-10-22T07:31:08.790Z,14.52
2022-10-22T07:33:35.870Z,16.90
2022-10-22T07:36:05.463Z,19.08
2022-10-22T07:38:32.816Z,19.75
2022-10-22T07:41:00.195Z,19.08
2022-10-22T07:43:27.502Z,19.80
2022-10-22T07:45:55.940Z,17.60
2022-10-22T07:48:24.098Z,18.52
2022-10-22T07:50:52.012Z,18.55
2022-10-22T07:53:19.255Z,19.75
2022-10-22T07:55:49.535Z,20.25
2022-10-22T07:58:20.150Z,21.70
2022-10-22T08:00:47.780Z,21.50
2022-10-22T08:03:15.971Z,18.02
2022-10-22T08:05:43.909Z,19.58
2022-10-22T08:08:15.187Z,20.52
2022-10-22T08:10:42.935Z,17.45
2022-10-22T08:13:09.891Z,18.35
2022-10-22T08:15:37.042Z,20.45
2022-10-22T08:18:04.420Z,21.25
2022-10-22T08:20:32.244Z,24.42
2022-10-22T08:22:59.502Z,25.75
2022-10-22T08:25:27.144Z,21.77
2022-10-22T08:27:54.253Z,21.17
2022-10-22T08:30:21.292Z,20.70
2022-10-22T08:32:50.488Z,21.17
2022-10-22T08:35:20.194Z,20.73
2022-10-22T08:37:47.277Z,19.60
2022-10-22T08:40:31.656Z,19.52
2022-10-22T08:45:43.150Z,15.63
2022-10-22T08:48:54.130Z,16.38
2022-10-22T08:51:30.288Z,16.67
2022-10-22T08:53:59.948Z,15.85
2022-10-22T08:56:27.289Z,15.57
2022-10-22T08:59:14.459Z,13.57
2022-10-22T09:01:47.978Z,13.18
2022-10-22T09:04:26.632Z,15.88
2022-10-22T09:06:55.494Z,14.82
2022-10-22T09:09:25.790Z,14.45
2022-10-22T09:11:55.321Z,16.08
2022-10-22T09:14:24.559Z,15.35
2022-10-22T09:17:21.538Z,15.85
2022-10-22T09:20:10.339Z,16.55
2022-10-22T09:22:51.043Z,17.25
2022-10-22T09:25:27.525Z,18.00
2022-10-22T09:27:58.517Z,18.65
2022-10-22T09:30:28.572Z,19.98
2022-10-22T09:33:02.717Z,20.48
2022-10-22T09:35:35.143Z,18.48
2022-10-22T09:38:07.877Z,18.02
2022-10-22T09:40:49.899Z,18.15
2022-10-22T09:43:16.994Z,16.65
2022-10-22T09:45:49.115Z,15.13
2022-10-22T09:48:26.537Z,15.52
2022-10-22T09:51:18.544Z,25.25
2022-10-22T09:54:00.991Z,19.60
2022-10-22T09:56:37.074Z,14.98
2022-10-22T09:59:04.663Z,14.18
2022-10-22T10:01:36.413Z,13.00
2022-10-22T10:04:10.370Z,13.45
2022-10-22T10:06:40.338Z,12.65
2022-10-22T10:09:23.006Z,11.90
2022-10-22T10:12:06.831Z,11.38
2022-10-22T10:14:59.954Z,13.70
2022-10-22T10:17:29.657Z,13.70
2022-10-22T10:20:04.289Z,11.65
2022-10-22T10:23:04.064Z,12.70
2022-10-22T10:25:43.080Z,10.90
2022-10-22T10:28:12.979Z,10.55
2022-10-22T10:30:59.493Z,10.80
2022-10-22T10:34:00.539Z,9.77
2022-10-22T10:36:49.641Z,10.45
2022-10-22T10:39:30.063Z,9.93
2022-10-22T10:42:03.221Z,10.43
2022-10-22T10:44:39.260Z,9.57
2022-10-22T10:47:06.219Z,10.05
2022-10-22T10:49:36.739Z,9.93
2022-10-22T10:52:20.513Z,10.40
2022-10-22T10:55:07.198Z,9.75
2022-10-22T10:58:03.296Z,9.00
2022-10-22T11:00:36.547Z,9.25
2022-10-22T11:03:37.472Z,8.23
2022-10-22T11:06:10.298Z,8.95
2022-10-22T11:08:45.481Z,9.50
2022-10-22T11:11:36.595Z,8.98
2022-10-22T11:14:41.670Z,9.23
2022-10-22T11:17:17.482Z,10.00
2022-10-22T11:20:19.688Z,9.13
2022-10-22T11:23:18.236Z,10.57
2022-10-22T11:25:48.422Z,9.60
2022-10-22T11:28:52.635Z,9.60
2022-10-22T11:31:20.750Z,9.60
2022-10-22T11:34:09.863Z,10.60
2022-10-22T11:36:43.459Z,10.00
2022-10-22T11:39:34.387Z,8.57
2022-10-22T11:42:06.821Z,8.82
2022-10-22T11:45:00.607Z,8.05
2022-10-22T11:47:57.462Z,6.70
2022-10-22T11:50:27.226Z,5.40
2022-10-22T11:53:07.875Z,4.35
2022-10-22T11:55:51.626Z,5.50
2022-10-22T11:58:39.351Z,4.72
2022-10-22T12:01:09.357Z,4.00
2022-10-22T12:03:48.266Z,4.72
2022-10-22T12:06:15.792Z,3.45
2022-10-22T12:08:57.414Z,3.70
2022-10-22T12:11:36.480Z,2.72
2022-10-22T12:14:24.411Z,2.70
2022-10-22T12:17:07.482Z,2.65
2022-10-22T12:19:56.421Z,2.00
2022-10-22T12:22:29.983Z,3.58
2022-10-22T12:25:02.116Z,2.33
2022-10-22T12:27:36.425Z,2.03
2022-10-22T12:30:22.814Z,1.63
2022-10-22T12:32:56.415Z,2.08
2022-10-22T12:38:00.875Z,2.90
2022-10-22T12:40:31.680Z,2.28
2022-10-22T12:43:01.603Z,2.00
2022-10-22T12:45:33.997Z,2.35
2022-10-22T12:48:03.797Z,2.28
2022-10-22T12:51:00.243Z,3.45
2022-10-22T12:53:37.991Z,2.25
2022-10-22T12:56:10.558Z,3.25
2022-10-22T12:58:41.763Z,2.58
2022-10-22T13:01:15.421Z,2.80
2022-10-22T13:06:25.730Z,2.95
2022-10-22T13:09:23.753Z,2.85
2022-10-22T13:11:58.239Z,3.25
2022-10-22T13:14:25.165Z,2.78
2022-10-22T13:17:11.728Z,3.20
2022-10-22T13:20:05.311Z,2.70
2022-10-22T13:22:38.851Z,2.63
2022-10-22T13:25:14.953Z,2.63
2022-10-22T13:27:46.685Z,2.30
2022-10-22T13:30:37.676Z,2.55
2022-10-22T13:33:07.213Z,2.55
2022-10-22T13:35:38.658Z,2.30
2022-10-22T13:38:19.571Z,2.65
2022-10-22T13:40:47.404Z,2.53
2022-10-22T13:43:16.096Z,2.40
2022-10-22T13:45:46.787Z,2.03
2022-10-22T13:48:19.999Z,2.90
2022-10-22T13:50:46.973Z,2.50
2022-10-22T13:53:25.714Z,2.90
2022-10-22T13:55:53.055Z,2.45
2022-10-22T13:58:24.569Z,2.40
2022-10-22T14:00:56.957Z,2.80
2022-10-22T14:03:29.103Z,2.60
2022-10-22T14:05:56.401Z,2.20
2022-10-22T14:08:25.983Z,2.40
2022-10-22T14:10:54.258Z,2.80
2022-10-22T14:13:21.801Z,2.75
2022-10-22T14:15:50.917Z,2.38
2022-10-22T14:18:26.354Z,2.72
2022-10-22T14:20:56.935Z,2.80
2022-10-22T14:23:27.024Z,2.88
2022-10-22T14:25:54.438Z,3.33
2022-10-22T14:28:21.384Z,3.13
2022-10-22T14:30:48.843Z,2.97
2022-10-22T14:33:21.120Z,2.90
2022-10-22T14:35:48.691Z,2.58
2022-10-22T14:38:16.148Z,2.78
2022-10-22T14:40:43.792Z,2.63
2022-10-22T14:43:25.516Z,3.30
2022-10-22T14:45:52.888Z,6.70
2022-10-22T14:50:54.474Z,3.53
2022-10-22T14:53:21.360Z,2.90
2022-10-22T14:55:51.461Z,3.47
2022-10-22T14:58:18.627Z,3.22
2022-10-22T15:00:45.593Z,3.13
2022-10-22T15:03:12.679Z,2.67
2022-10-22T15:05:44.553Z,2.83
2022-10-22T15:08:14.198Z,3.20
2022-10-22T15:10:41.752Z,3.15
2022-10-22T15:13:09.365Z,3.45
2022-10-22T15:15:39.766Z,4.32
2022-10-22T15:18:07.675Z,5.85
2022-10-22T15:20:34.656Z,6.13
2022-10-22T15:23:01.769Z,5.00
2022-10-22T15:25:28.917Z,5.20
2022-10-22T15:28:00.759Z,4.82
2022-10-22T15:30:34.531Z,5.30
2022-10-22T15:33:02.078Z,4.85
2022-10-22T15:35:29.096Z,4.20
2022-10-22T15:37:56.079Z,3.92
2022-10-22T15:40:23.113Z,3.60
2022-10-22T15:42:50.107Z,3.60
2022-10-22T15:45:17.153Z,4.25
2022-10-22T15:47:48.599Z,4.05
2022-10-22T15:50:16.582Z,4.13
2022-10-22T15:52:43.517Z,4.05
2022-10-22T15:55:10.752Z,4.93
2022-10-22T15:57:38.978Z,5.70
2022-10-22T16:00:07.585Z,5.88
2022-10-22T16:02:39.325Z,5.40
2022-10-22T16:05:06.771Z,6.20
2022-10-22T16:07:33.761Z,5.45
2022-10-22T16:10:01.638Z,5.25
2022-10-22T16:12:28.715Z,6.25
2022-10-22T16:14:55.810Z,6.65
2022-10-22T16:17:23.279Z,5.55
2022-10-22T16:19:50.325Z,6.47
2022-10-22T16:22:17.409Z,6.93
2022-10-22T16:24:44.409Z,7.68
2022-10-22T16:27:11.426Z,6.53
2022-10-22T16:29:42.043Z,6.15
2022-10-22T16:32:09.048Z,6.05
2022-10-22T16:34:36.040Z,7.60
2022-10-22T16:37:03.149Z,7.03
2022-10-22T16:39:30.171Z,7.53
2022-10-22T16:41:57.269Z,8.93
2022-10-22T16:44:24.215Z,9.40
2022-10-22T16:46:51.273Z,9.40
2022-10-22T16:49:18.325Z,10.75
2022-10-22T16:51:45.306Z,9.13
2022-10-22T16:54:13.518Z,9.32
2022-10-22T16:56:40.490Z,7.32
2022-10-22T16:59:07.868Z,6.72
2022-10-22T17:01:39.659Z,7.22
2022-10-22T17:04:07.879Z,7.15
2022-10-22T17:06:34.901Z,5.90
2022-10-22T17:09:02.062Z,6.03
2022-10-22T17:11:34.678Z,5.68
2022-10-22T17:14:02.418Z,5.72
2022-10-22T17:16:30.152Z,5.57
2022-10-22T17:18:58.281Z,6.00
2022-10-22T17:21:25.665Z,6.22
2022-10-22T17:23:57.238Z,6.05
2022-10-22T17:26:26.881Z,5.97
2022-10-22T17:28:54.665Z,4.70
2022-10-22T17:31:31.737Z,6.20
2022-10-22T17:34:00.075Z,5.70
2022-10-22T17:36:31.838Z,7.30
2022-10-22T17:39:04.853Z,6.53
2022-10-22T17:41:34.708Z,7.00
2022-10-22T17:44:06.763Z,5.60
2022-10-22T17:46:33.714Z,4.95
2022-10-22T17:49:06.982Z,4.55
2022-10-22T17:51:33.999Z,4.63
2022-10-22T17:54:02.475Z,4.68
2022-10-22T17:56:31.651Z,3.90
2022-10-22T17:59:01.707Z,3.63
2022-10-22T18:01:32.856Z,4.28
2022-10-22T18:04:02.382Z,4.35
2022-10-22T18:06:30.110Z,4.60
2022-10-22T18:08:57.089Z,4.68
2022-10-22T18:11:27.077Z,5.15
2022-10-22T18:13:56.216Z,4.60
2022-10-22T18:16:24.024Z,4.68
2022-10-22T18:18:53.476Z,4.25
2022-10-22T18:21:21.599Z,4.30
2022-10-22T18:23:48.935Z,3.65
2022-10-22T18:26:17.906Z,3.85
2022-10-22T18:28:46.450Z,4.80
2022-10-22T18:31:16.496Z,3.83
2022-10-22T18:33:44.112Z,3.65
2022-10-22T18:36:14.768Z,4.43
2022-10-22T18:38:41.781Z,4.30
2022-10-22T18:41:10.306Z,4.28
2022-10-22T18:43:37.484Z,4.00
2022-10-22T18:46:07.701Z,3.67
2022-10-22T18:48:36.110Z,4.25
2022-10-22T18:51:05.774Z,4.38
2022-10-22T18:53:33.305Z,4.55
2022-10-22T18:56:00.594Z,4.10
2022-10-22T18:58:27.533Z,4.25
2022-10-22T19:00:54.500Z,3.78
2022-10-22T19:03:21.707Z,3.95
2022-10-22T19:05:51.237Z,3.80
2022-10-22T19:08:19.563Z,4.65
2022-10-22T19:10:47.312Z,4.20
2022-10-22T19:13:16.474Z,5.00
2022-10-22T19:15:43.529Z,5.28
2022-10-22T19:18:10.892Z,4.60
2022-10-22T19:20:37.939Z,4.43
2022-10-22T19:23:05.903Z,4.10
2022-10-22T19:25:34.069Z,3.80
2022-10-22T19:28:01.084Z,4.32
2022-10-22T19:30:28.136Z,4.25
2022-10-22T19:32:55.177Z,4.78
2022-10-22T19:35:22.169Z,5.05
2022-10-22T19:37:49.272Z,4.60
2022-10-22T19:40:16.278Z,4.30
2022-10-22T19:42:46.971Z,4.85
2022-10-22T19:45:13.924Z,4.78
2022-10-22T19:47:42.163Z,5.28
2022-10-22T19:50:09.135Z,5.22
2022-10-22T19:52:36.064Z,4.68
2022-10-22T19:55:03.273Z,5.38
2022-10-22T19:57:30.258Z,4.57
2022-10-22T19:59:57.189Z,4.75
2022-10-22T20:02:24.353Z,4.45
2022-10-22T20:04:51.428Z,4.47
2022-10-22T20:07:18.456Z,4.60
2022-10-22T20:09:45.479Z,4.93
2022-10-22T20:12:12.423Z,4.00
2022-10-22T20:14:40.483Z,3.50
2022-10-22T20:17:07.639Z,4.57
2022-10-22T20:19:34.616Z,3.72
2022-10-22T20:22:01.747Z,4.53
2022-10-22T20:24:28.821Z,4.10
2022-10-22T20:26:55.736Z,4.68
2022-10-22T20:29:22.865Z,4.10
2022-10-22T20:31:50.066Z,3.95
2022-10-22T20:34:17.231Z,5.60
2022-10-22T20:36:44.202Z,4.95
2022-10-22T20:39:14.327Z,5.05
2022-10-22T20:41:41.428Z,4.88
2022-10-22T20:44:15.642Z,5.88
2022-10-22T20:46:42.931Z,5.55
2022-10-22T20:49:13.379Z,5.38
2022-10-22T20:51:40.830Z,5.53
2022-10-22T20:54:09.282Z,5.38
2022-10-22T20:56:39.555Z,5.25
2022-10-22T20:59:08.490Z,4.40
2022-10-22T21:01:44.434Z,4.65
2022-10-22T21:04:11.557Z,5.30
2022-10-22T21:06:40.375Z,4.90
2022-10-22T21:09:09.864Z,4.47
2022-10-22T21:11:38.159Z,5.13
2022-10-22T21:14:06.647Z,5.22
2022-10-22T21:16:34.224Z,5.03
2022-10-22T21:19:01.636Z,4.28
2022-10-22T21:21:28.848Z,4.85
2022-10-22T21:23:55.796Z,4.57
2022-10-22T21:26:22.745Z,5.07
2022-10-22T21:28:49.766Z,4.75
2022-10-22T21:31:26.077Z,4.15
2022-10-22T21:33:53.864Z,4.20
2022-10-22T21:36:23.184Z,4.00
2022-10-22T21:38:52.156Z,4.60
2022-10-22T21:41:21.079Z,4.07
2022-10-22T21:43:48.664Z,4.07
2022-10-22T21:46:24.192Z,5.65
2022-10-22T21:49:01.471Z,4.40
2022-10-22T21:51:30.972Z,5.70
2022-10-22T21:53:58.019Z,4.70
2022-10-22T21:56:28.090Z,4.30
2022-10-22T21:58:55.879Z,4.68
2022-10-22T22:01:23.324Z,4.28
2022-10-22T22:03:51.549Z,4.53
2022-10-22T22:06:22.017Z,4.93
2022-10-22T22:08:51.068Z,4.13
2022-10-22T22:11:23.522Z,4.63
2022-10-22T22:13:51.376Z,4.25
2022-10-22T22:16:25.412Z,4.97
2022-10-22T22:18:55.830Z,4.75
2022-10-22T22:21:22.953Z,3.80
2022-10-22T22:23:50.707Z,5.05
2022-10-22T22:26:25.267Z,4.55
2022-10-22T22:28:56.536Z,4.03
2022-10-22T22:31:35.023Z,5.05
2022-10-22T22:34:08.724Z,5.60
2022-10-22T22:39:06.007Z,6.03
2022-10-22T22:41:33.196Z,5.05
2022-10-22T22:44:00.360Z,6.70
2022-10-22T22:46:27.397Z,5.05
2022-10-22T22:48:54.380Z,5.00
2022-10-22T22:51:21.330Z,4.85
2022-10-22T22:53:48.295Z,4.80
2022-10-22T22:56:18.117Z,6.13
2022-10-22T22:58:45.161Z,5.82
2022-10-22T23:01:14.982Z,5.75
2022-10-22T23:03:43.158Z,6.10
2022-10-22T23:06:11.059Z,5.47
2022-10-22T23:08:38.112Z,5.28
2022-10-22T23:11:10.943Z,5.88
2022-10-22T23:13:38.383Z,5.70
2022-10-22T23:16:14.273Z,5.72
2022-10-22T23:18:41.572Z,6.00
2022-10-22T23:21:14.491Z,4.75
2022-10-22T23:23:46.261Z,4.57
2022-10-22T23:26:14.531Z,5.63
2022-10-22T23:28:41.522Z,5.50
2022-10-22T23:31:10.715Z,4.95
2022-10-22T23:33:37.640Z,5.13
2022-10-22T23:36:07.828Z,5.00
2022-10-22T23:38:36.490Z,5.60
2022-10-22T23:41:04.404Z,5.80
2022-10-22T23:43:32.627Z,5.32
2022-10-22T23:45:59.611Z,6.68
2022-10-22T23:48:26.513Z,5.65
2022-10-22T23:53:25.290Z,4.95
2022-10-22T23:55:52.198Z,4.97
2022-10-22T23:58:19.150Z,5.05
